Time;durP1;ratioP1;P1;durP2;ratioP2;P2;SDS_P1;SDS_P2;PMS_P1;PMS_P2;Temp;Humidity;BMP_temperature;BMP_pressure;BME280_temperature;BME280_humidity;BME280_pressure;Samples;Min_cycle;Max_cycle;Signal;HPM_P1;HPM_P2
2023/07/14 00:00:22;;;;;;;12.90;7.10;;;;;;;16.05;79.86;101242.78;690152;28;1395;-80
2023/07/14 00:00:43;;;;;;;13.55;7.45;;;;;;;16.06;79.85;101238.38;685081;28;1116;-80
2023/07/14 00:01:03;;;;;;;14.13;7.70;;;;;;;16.07;79.84;101243.66;685056;28;1019;-80
2023/07/14 00:01:26;;;;;;;12.30;7.80;;;;;;;16.02;79.55;101230.44;682314;29;1084;-80
2023/07/14 00:01:47;;;;;;;11.60;7.93;;;;;;;16.08;79.58;101240.16;687908;28;1132;-80
2023/07/14 00:02:14;;;;;;;14.33;8.27;;;;;;;16.06;79.70;101228.75;693068;28;1551;-80
2023/07/14 00:02:35;;;;;;;14.10;7.50;;;;;;;16.05;79.57;101232.25;687807;28;1001;-80
2023/07/14 00:02:56;;;;;;;13.40;7.22;;;;;;;16.10;79.54;101238.44;687835;28;973;-80
2023/07/14 00:03:17;;;;;;;9.52;7.18;;;;;;;16.05;79.61;101221.72;679743;29;1475;-80
2023/07/14 00:03:38;;;;;;;10.98;7.60;;;;;;;16.00;79.21;101212.88;687711;28;1410;-80
2023/07/14 00:03:59;;;;;;;14.02;7.90;;;;;;;16.02;79.17;101221.66;685161;28;969;-79
2023/07/14 00:04:28;;;;;;;16.30;7.95;;;;;;;16.05;79.31;101216.44;684708;28;1133;-80
2023/07/14 00:04:49;;;;;;;17.45;8.00;;;;;;;15.98;79.23;101211.97;682036;29;1117;-80
2023/07/14 00:05:19;;;;;;;18.58;7.53;;;;;;;16.04;79.43;101222.56;679650;29;1282;-80
2023/07/14 00:05:40;;;;;;;18.55;7.38;;;;;;;15.99;79.28;101213.72;679415;29;1242;-80
2023/07/14 00:06:01;;;;;;;16.63;7.18;;;;;;;15.95;79.20;101209.28;674544;29;1181;-80
2023/07/14 00:06:22;;;;;;;14.25;7.30;;;;;;;16.01;79.10;101219.88;684796;28;1346;-80
2023/07/14 00:06:45;;;;;;;12.48;7.30;;;;;;;15.97;79.27;101218.09;685172;28;753;-80
2023/07/14 00:07:12;;;;;;;13.45;7.50;;;;;;;15.95;79.18;101219.81;682605;28;1443;-80
2023/07/14 00:07:33;;;;;;;13.85;7.40;;;;;;;15.87;79.42;101212.69;684807;28;1140;-80
2023/07/14 00:07:56;;;;;;;13.25;7.10;;;;;;;15.92;79.53;101219.78;679713;28;1986;-79
2023/07/14 00:08:18;;;;;;;12.38;7.53;;;;;;;15.84;79.30;101209.13;679568;28;1117;-80
2023/07/14 00:08:40;;;;;;;13.55;7.80;;;;;;;15.84;79.21;101217.94;685053;28;1003;-80
2023/07/14 00:09:00;;;;;;;13.10;7.40;;;;;;;15.73;79.66;101195.88;687018;28;1839;-80
2023/07/14 00:09:24;;;;;;;13.20;6.72;;;;;;;15.81;79.45;101217.91;681845;28;1761;-80
2023/07/14 00:09:45;;;;;;;12.60;6.28;;;;;;;15.78;79.54;101216.97;693132;28;1217;-80
2023/07/14 00:10:35;;;;;;;13.15;6.88;;;;;;;15.80;79.72;101224.00;685272;28;1344;-79
2023/07/14 00:10:56;;;;;;;14.75;8.40;;;;;;;15.73;79.84;101215.16;690149;28;1433;-80
2023/07/14 00:11:22;;;;;;;15.32;8.40;;;;;;;15.72;79.89;101207.22;683453;28;1273;-80
2023/07/14 00:11:43;;;;;;;13.30;8.00;;;;;;;15.76;79.88;101223.06;687823;28;1223;-82
2023/07/14 00:12:04;;;;;;;12.50;7.40;;;;;;;15.76;79.88;101224.84;693188;28;1229;-80
2023/07/14 00:12:25;;;;;;;14.38;7.20;;;;;;;15.78;80.03;101219.59;682148;28;1240;-80
2023/07/14 00:12:47;;;;;;;16.03;7.70;;;;;;;15.83;79.92;101226.69;685050;28;1232;-80
2023/07/14 00:13:08;;;;;;;14.70;8.00;;;;;;;15.80;79.79;101221.38;690016;28;1260;-80
2023/07/14 00:13:29;;;;;;;13.65;8.07;;;;;;;15.76;79.81;101219.56;684696;28;1159;-80
2023/07/14 00:13:51;;;;;;;12.07;8.13;;;;;;;15.75;79.67;101217.81;693242;28;1205;-81
2023/07/14 00:14:12;;;;;;;11.05;8.05;;;;;;;15.79;79.79;101231.91;691720;28;1026;-80
2023/07/14 00:14:33;;;;;;;10.50;7.82;;;;;;;15.78;79.58;101228.38;682243;28;1448;-80
2023/07/14 00:14:53;;;;;;;10.03;7.20;;;;;;;15.74;79.73;101231.84;687727;28;1127;-80
2023/07/14 00:15:16;;;;;;;11.23;7.40;;;;;;;15.75;79.79;101223.06;685098;28;1100;-80
2023/07/14 00:15:39;;;;;;;12.38;7.60;;;;;;;15.77;79.79;101226.59;687146;28;862;-80
2023/07/14 00:16:00;;;;;;;14.35;7.57;;;;;;;15.73;79.62;101222.19;682119;28;1144;-80
2023/07/14 00:16:27;;;;;;;15.60;7.43;;;;;;;15.74;79.83;101231.84;688136;28;1292;-80
2023/07/14 00:16:47;;;;;;;18.10;7.60;;;;;;;15.63;79.83;101214.13;687898;28;1068;-80
2023/07/14 00:17:11;;;;;;;17.60;7.90;;;;;;;15.67;79.73;101222.94;684983;28;1237;-81
2023/07/14 00:17:32;;;;;;;16.63;7.95;;;;;;;15.67;80.03;101225.59;679470;29;1104;-80
2023/07/14 00:18:11;;;;;;;12.90;7.90;;;;;;;15.59;80.10;101208.81;679859;29;1154;-80
2023/07/14 00:18:32;;;;;;;10.80;7.55;;;;;;;15.66;80.17;101233.47;684767;28;946;-81
2023/07/14 00:18:52;;;;;;;13.40;7.32;;;;;;;15.58;80.26;101215.81;687750;28;1111;-80
2023/07/14 00:19:15;;;;;;;13.60;7.43;;;;;;;15.63;80.33;101221.16;682360;29;1105;-80
2023/07/14 00:19:36;;;;;;;16.15;7.60;;;;;;;15.57;80.38;101219.31;682246;28;1364;-80
2023/07/14 00:19:59;;;;;;;15.00;7.90;;;;;;;15.56;80.41;101214.03;687750;28;1283;-80
2023/07/14 00:20:26;;;;;;;15.55;8.10;;;;;;;15.57;80.27;101219.31;685365;28;1171;-80
2023/07/14 00:20:46;;;;;;;11.77;7.70;;;;;;;15.51;80.36;101203.44;685109;28;902;-80
2023/07/14 00:21:18;;;;;;;10.32;7.15;;;;;;;15.51;80.39;101203.44;684977;28;1087;-80
2023/07/14 00:21:40;;;;;;;9.85;7.10;;;;;;;15.54;80.52;101208.75;690347;28;934;-80
2023/07/14 00:22:01;;;;;;;10.60;7.13;;;;;;;15.53;80.25;101216.59;679693;29;1315;-80
2023/07/14 00:22:22;;;;;;;11.15;7.38;;;;;;;15.44;80.28;101201.59;679612;29;1042;-80
2023/07/14 00:22:43;;;;;;;11.80;7.47;;;;;;;15.49;80.47;101210.44;685101;28;1244;-80
2023/07/14 00:23:11;;;;;;;12.50;7.68;;;;;;;15.43;80.37;101207.72;684296;28;1105;-80
2023/07/14 00:23:32;;;;;;;11.45;7.43;;;;;;;15.45;80.71;101213.88;682835;28;1078;-80
2023/07/14 00:24:00;;;;;;;12.38;7.78;;;;;;;15.44;80.51;101209.47;685193;28;1379;-79
2023/07/14 00:24:21;;;;;;;11.40;7.47;;;;;;;15.43;80.75;101211.22;679509;29;1188;-80
2023/07/14 00:24:42;;;;;;;11.98;7.45;;;;;;;15.46;80.67;101206.00;687827;28;1183;-80
2023/07/14 00:25:04;;;;;;;11.35;7.25;;;;;;;15.42;81.01;101203.31;684207;28;1226;-80
2023/07/14 00:25:26;;;;;;;11.18;7.43;;;;;;;15.42;80.71;101216.47;682420;28;1243;-79
2023/07/14 00:25:46;;;;;;;9.77;7.03;;;;;;;15.40;80.74;101207.66;679319;29;1367;-80
2023/07/14 00:26:19;;;;;;;9.82;7.07;;;;;;;15.39;80.84;101204.16;682115;29;1412;-80
2023/07/14 00:26:42;;;;;;;10.27;6.95;;;;;;;15.40;80.72;101216.44;682404;29;787;-80
2023/07/14 00:27:14;;;;;;;11.68;7.22;;;;;;;15.31;80.88;101195.25;685131;28;1246;-80
2023/07/14 00:27:35;;;;;;;13.93;7.30;;;;;;;15.39;80.82;101213.78;682206;28;1361;-80
2023/07/14 00:27:56;;;;;;;14.75;7.05;;;;;;;15.38;80.82;101218.16;684837;28;1979;-80
2023/07/14 00:28:18;;;;;;;18.13;7.45;;;;;;;15.29;80.83;101202.22;685053;28;1098;-80
2023/07/14 00:28:39;;;;;;;14.50;7.10;;;;;;;15.39;80.86;101219.94;682250;29;1268;-80
2023/07/14 00:29:05;;;;;;;12.55;7.40;;;;;;;15.34;80.82;101211.06;679717;29;1223;-79
2023/07/14 00:29:25;;;;;;;10.70;6.97;;;;;;;15.39;80.85;101216.41;687439;28;1389;-80
2023/07/14 00:29:48;;;;;;;10.48;6.57;;;;;;;15.31;80.93;101209.28;682464;28;1314;-80
2023/07/14 00:30:23;;;;;;;11.73;7.00;;;;;;;15.29;80.86;101208.38;676969;29;1321;-81
2023/07/14 00:30:46;;;;;;;11.25;7.10;;;;;;;15.33;80.91;101218.09;685004;28;927;-81
2023/07/14 00:31:16;;;;;;;10.10;6.88;;;;;;;15.32;80.86;101213.66;682410;28;1391;-80
2023/07/14 00:31:37;;;;;;;13.30;7.30;;;;;;;15.27;80.84;101210.09;679672;28;1338;-80
2023/07/14 00:31:57;;;;;;;14.27;7.88;;;;;;;15.33;80.93;101219.84;685226;28;1290;-80
2023/07/14 00:32:22;;;;;;;12.15;7.40;;;;;;;15.26;80.88;101210.97;682452;28;1109;-80
2023/07/14 00:32:43;;;;;;;11.80;7.05;;;;;;;15.33;80.87;101218.09;685032;28;1025;-79
2023/07/14 00:33:11;;;;;;;12.48;7.00;;;;;;;15.21;80.76;101205.66;679549;28;1338;-80
2023/07/14 00:33:32;;;;;;;12.35;7.05;;;;;;;15.31;80.96;101218.94;682232;29;1006;-80
2023/07/14 00:33:54;;;;;;;13.60;7.35;;;;;;;15.30;80.93;101220.66;684966;28;1196;-80
2023/07/14 00:34:15;;;;;;;13.48;7.20;;;;;;;15.28;80.97;101211.88;685023;28;1030;-80
2023/07/14 00:34:36;;;;;;;11.73;7.10;;;;;;;15.28;81.08;101210.97;683043;28;1268;-80
2023/07/14 00:34:56;;;;;;;9.00;6.82;;;;;;;15.30;81.04;101214.53;684919;28;1072;-79
2023/07/14 00:35:25;;;;;;;9.10;6.80;;;;;;;15.31;81.14;101211.03;690226;28;1137;-80
2023/07/14 00:35:49;;;;;;;8.75;6.70;;;;;;;15.23;81.01;101195.13;684553;28;1133;-80
2023/07/14 00:36:10;;;;;;;10.18;6.82;;;;;;;15.24;81.12;101204.78;682342;28;1229;-80
2023/07/14 00:36:31;;;;;;;11.10;7.00;;;;;;;15.29;81.23;101211.00;689058;28;1271;-80
2023/07/14 00:36:52;;;;;;;11.23;7.10;;;;;;;15.32;81.30;101207.53;693267;28;1186;-80
2023/07/14 00:37:13;;;;;;;9.25;6.88;;;;;;;15.30;81.37;101210.16;690318;28;1104;-80
2023/07/14 00:37:34;;;;;;;8.80;6.65;;;;;;;15.30;81.30;101204.88;687487;28;1130;-80
2023/07/14 00:37:56;;;;;;;8.95;6.55;;;;;;;15.34;81.18;101211.06;682271;28;1120;-80
2023/07/14 00:38:17;;;;;;;10.40;7.10;;;;;;;15.35;81.00;101219.00;684827;28;1277;-80
2023/07/14 00:38:38;;;;;;;11.43;7.28;;;;;;;15.33;81.24;101207.59;682223;28;1285;-80
2023/07/14 00:39:00;;;;;;;11.43;7.13;;;;;;;15.34;81.18;101209.34;684575;28;1149;-80
2023/07/14 00:39:20;;;;;;;10.70;6.82;;;;;;;15.38;81.14;101222.53;683886;28;1967;-80
2023/07/14 00:39:41;;;;;;;9.87;6.70;;;;;;;15.37;81.21;101215.50;677271;28;1048;-80
2023/07/14 00:40:03;;;;;;;9.05;6.60;;;;;;;15.38;81.30;101212.91;685011;28;993;-80
2023/07/14 00:40:36;;;;;;;9.55;6.68;;;;;;;15.40;81.17;101215.53;687433;28;1000;-80
2023/07/14 00:40:56;;;;;;;10.27;7.13;;;;;;;15.35;81.08;101211.13;682265;28;1233;-80
2023/07/14 00:41:21;;;;;;;12.37;7.30;;;;;;;15.40;81.13;101210.28;684970;28;1245;-80
2023/07/14 00:41:42;;;;;;;12.88;7.35;;;;;;;15.35;81.22;101203.22;685063;28;1468;-80
2023/07/14 00:42:07;;;;;;;11.77;7.00;;;;;;;15.38;81.18;101207.66;679819;29;1085;-80
2023/07/14 00:42:27;;;;;;;11.60;7.38;;;;;;;15.41;81.28;101212.94;684705;28;1117;-80
2023/07/14 00:42:53;;;;;;;10.47;7.17;;;;;;;15.37;81.14;101199.72;682253;29;732;-80
2023/07/14 00:43:21;;;;;;;11.02;7.40;;;;;;;15.41;80.91;101210.31;682404;28;1070;-80
2023/07/14 00:43:42;;;;;;;11.18;7.65;;;;;;;15.41;80.87;101212.94;677222;29;918;-80
2023/07/14 00:44:04;;;;;;;11.15;7.70;;;;;;;15.38;81.05;101201.50;687734;28;1358;-80
2023/07/14 00:44:24;;;;;;;10.02;7.03;;;;;;;15.41;81.19;101209.41;687034;28;1284;-80
2023/07/14 00:44:47;;;;;;;11.40;7.05;;;;;;;15.40;80.78;101208.53;682980;28;941;-80
2023/07/14 00:45:19;;;;;;;13.05;7.25;;;;;;;15.35;80.67;101203.22;679724;29;1059;-80
2023/07/14 00:45:40;;;;;;;10.57;6.93;;;;;;;15.38;80.83;101205.03;683097;28;973;-80
2023/07/14 00:46:01;;;;;;;11.40;7.22;;;;;;;15.35;80.91;101199.69;687262;28;1453;-80
2023/07/14 00:46:29;;;;;;;10.30;6.90;;;;;;;15.36;81.04;101204.09;682367;28;1504;-80
2023/07/14 00:46:50;;;;;;;8.98;6.75;;;;;;;15.32;80.70;101197.03;681964;29;1170;-80
2023/07/14 00:47:26;;;;;;;9.93;7.07;;;;;;;15.35;80.95;101205.84;687634;28;1203;-80
2023/07/14 00:47:52;;;;;;;12.48;7.47;;;;;;;15.27;80.85;101189.06;687862;28;847;-80
2023/07/14 00:48:18;;;;;;;14.10;7.40;;;;;;;15.33;80.86;101198.78;687615;28;1148;-79
2023/07/14 00:48:39;;;;;;;13.73;7.43;;;;;;;15.35;80.98;101197.97;682350;29;1325;-80
2023/07/14 00:49:07;;;;;;;10.50;7.25;;;;;;;15.35;80.75;101191.81;684957;28;1202;-80
2023/07/14 00:49:39;;;;;;;10.20;6.88;;;;;;;15.38;80.92;101201.50;684360;28;981;-80
2023/07/14 00:50:01;;;;;;;11.10;7.00;;;;;;;15.31;80.94;101185.63;685125;28;1102;-80
2023/07/14 00:50:37;;;;;;;10.93;7.20;;;;;;;15.34;80.87;101193.56;682121;28;1532;-80
2023/07/14 00:51:13;;;;;;;10.15;7.40;;;;;;;15.40;80.71;101194.50;679628;28;1041;-80
2023/07/14 00:51:35;;;;;;;10.20;7.00;;;;;;;15.33;80.70;101194.44;684658;28;1153;-80
2023/07/14 00:52:03;;;;;;;9.57;6.70;;;;;;;15.33;80.86;101185.66;682323;29;1082;-80
2023/07/14 00:52:36;;;;;;;10.75;6.75;;;;;;;15.40;80.82;101195.41;685134;28;799;-80
2023/07/14 00:52:59;;;;;;;11.65;7.47;;;;;;;15.41;80.78;101201.53;685001;28;1072;-80
2023/07/14 00:53:23;;;;;;;11.35;7.40;;;;;;;15.41;80.87;101196.25;679084;29;1231;-80
2023/07/14 00:53:44;;;;;;;12.60;7.13;;;;;;;15.40;80.94;101197.13;681703;28;809;-80
2023/07/14 00:54:09;;;;;;;12.27;7.43;;;;;;;15.33;81.08;101178.66;685183;28;1348;-80
2023/07/14 00:54:31;;;;;;;11.27;7.95;;;;;;;15.41;80.79;101191.00;685506;28;899;-81
2023/07/14 00:54:52;;;;;;;11.82;8.10;;;;;;;15.37;80.96;101189.22;680988;28;1223;-80
2023/07/14 00:55:30;;;;;;;12.38;8.00;;;;;;;15.44;81.15;101191.06;685562;28;1385;-80
2023/07/14 00:55:58;;;;;;;12.85;7.80;;;;;;;15.35;80.98;101176.94;685155;28;745;-80
2023/07/14 00:56:31;;;;;;;10.25;7.05;;;;;;;15.47;80.97;101194.63;685322;28;1095;-81
2023/07/14 00:56:53;;;;;;;9.27;6.75;;;;;;;15.44;81.13;101185.81;683247;28;1312;-80
2023/07/14 00:57:18;;;;;;;10.35;6.88;;;;;;;15.36;81.02;101177.78;685626;28;1057;-79
2023/07/14 00:57:39;;;;;;;12.20;7.22;;;;;;;15.44;81.26;101183.19;688224;28;1114;-80
2023/07/14 00:58:00;;;;;;;11.20;7.30;;;;;;;15.41;80.83;101177.84;688340;28;977;-80
2023/07/14 00:58:25;;;;;;;11.02;7.60;;;;;;;15.42;80.92;101174.38;688887;28;1028;-80
2023/07/14 00:58:49;;;;;;;10.38;7.60;;;;;;;15.45;80.90;101182.31;688640;28;2216;-80
2023/07/14 00:59:15;;;;;;;10.60;7.43;;;;;;;15.48;80.91;101187.59;680186;29;1423;-80
2023/07/14 00:59:36;;;;;;;10.82;7.10;;;;;;;15.51;80.89;101187.66;680213;28;1371;-81
2023/07/14 01:00:14;;;;;;;9.73;6.60;;;;;;;15.65;80.84;101194.84;682801;28;1161;-80
2023/07/14 01:00:35;;;;;;;11.15;7.18;;;;;;;15.61;80.49;101194.81;682419;29;1269;-80
2023/07/14 01:01:09;;;;;;;11.40;7.40;;;;;;;15.54;80.58;101190.31;682666;28;1073;-79
2023/07/14 01:01:32;;;;;;;8.48;7.10;;;;;;;15.54;80.68;101192.97;682517;28;1031;-80
2023/07/14 01:02:14;;;;;;;8.40;7.30;;;;;;;15.50;80.63;101185.91;682809;29;1251;-80
2023/07/14 01:02:35;;;;;;;10.07;7.30;;;;;;;15.55;80.72;101189.47;684264;28;1285;-80
2023/07/14 01:03:03;;;;;;;10.27;7.40;;;;;;;15.56;80.71;101201.75;682801;28;1164;-80
2023/07/14 01:03:24;;;;;;;9.27;7.15;;;;;;;15.50;80.41;101188.53;682689;28;997;-80
2023/07/14 01:03:45;;;;;;;8.35;6.57;;;;;;;15.54;80.58;101198.22;680269;28;1440;-80
2023/07/14 01:04:05;;;;;;;13.32;7.00;;;;;;;15.53;80.55;101185.94;677660;29;1213;-80
2023/07/14 01:04:26;;;;;;;13.40;7.20;;;;;;;15.58;80.64;101192.16;682582;28;1034;-80
2023/07/14 01:04:52;;;;;;;13.95;7.35;;;;;;;15.54;80.24;101192.09;683024;29;827;-80
2023/07/14 01:05:13;;;;;;;10.07;7.40;;;;;;;15.51;80.72;101182.41;682790;29;1022;-80
2023/07/14 01:05:34;;;;;;;11.73;7.38;;;;;;;15.53;80.58;101188.56;685163;28;1162;-80
2023/07/14 01:05:58;;;;;;;11.30;7.10;;;;;;;15.45;80.26;101172.69;686374;28;1237;-79
2023/07/14 01:06:26;;;;;;;10.50;6.50;;;;;;;15.52;80.28;101178.91;686454;28;1372;-80
2023/07/14 01:06:47;;;;;;;11.82;7.20;;;;;;;15.52;80.23;101183.28;690901;28;823;-80
2023/07/14 01:07:10;;;;;;;13.00;7.65;;;;;;;15.54;80.13;101187.69;685443;28;1216;-80
2023/07/14 01:07:39;;;;;;;11.32;7.72;;;;;;;15.58;80.27;101184.25;685373;28;967;-80
2023/07/14 01:08:01;;;;;;;9.82;7.50;;;;;;;15.57;80.17;101190.38;680077;29;1895;-80
2023/07/14 01:08:22;;;;;;;10.45;7.68;;;;;;;15.54;80.06;101187.69;685569;28;1417;-80
2023/07/14 01:08:48;;;;;;;9.77;7.30;;;;;;;15.57;80.29;101193.03;685547;28;816;-80
2023/07/14 01:09:13;;;;;;;10.95;7.00;;;;;;;15.52;80.18;101189.44;685421;28;1013;-80
2023/07/14 01:09:35;;;;;;;12.35;7.70;;;;;;;15.48;80.26;101179.72;682554;28;948;-80
2023/07/14 01:09:59;;;;;;;12.70;7.75;;;;;;;15.46;80.32;101174.44;688257;28;1025;-80
2023/07/14 01:10:25;;;;;;;11.43;7.40;;;;;;;15.53;80.51;101191.19;685463;28;1146;-80
2023/07/14 01:10:46;;;;;;;12.85;7.32;;;;;;;15.53;80.33;101185.03;683229;28;1121;-80
2023/07/14 01:11:07;;;;;;;12.05;6.82;;;;;;;15.48;80.46;101172.72;685465;28;1035;-80
2023/07/14 01:11:34;;;;;;;10.30;6.97;;;;;;;15.47;80.20;101172.69;682540;29;1067;-81
2023/07/14 01:11:56;;;;;;;11.10;7.18;;;;;;;15.54;80.25;101181.56;682760;28;1221;-80
2023/07/14 01:12:22;;;;;;;12.00;7.65;;;;;;;15.55;80.19;101183.34;687248;28;1136;-80
2023/07/14 01:13:06;;;;;;;10.60;7.80;;;;;;;15.57;80.27;101186.88;685510;28;1245;-80
2023/07/14 01:13:27;;;;;;;10.00;7.40;;;;;;;15.45;80.33;101172.69;682426;28;1236;-80
2023/07/14 01:13:48;;;;;;;10.63;7.43;;;;;;;15.51;80.29;101185.03;682819;28;1172;-80
2023/07/14 01:14:14;;;;;;;10.20;7.25;;;;;;;15.58;80.07;101194.78;682751;29;1378;-80
2023/07/14 01:14:40;;;;;;;11.02;7.45;;;;;;;15.52;79.77;101181.53;687640;28;1204;-80
2023/07/14 01:15:03;;;;;;;11.40;7.30;;;;;;;15.55;80.20;101180.69;682919;29;1137;-80
2023/07/14 01:15:24;;;;;;;12.90;7.47;;;;;;;15.54;80.42;101182.44;680010;29;1543;-80
2023/07/14 01:15:45;;;;;;;13.45;7.50;;;;;;;15.58;80.40;101186.91;682412;28;1215;-80
2023/07/14 01:16:06;;;;;;;12.63;7.68;;;;;;;15.60;80.28;101185.16;677747;29;1394;-81
2023/07/14 01:16:29;;;;;;;12.70;7.60;;;;;;;15.53;80.25;101175.41;679756;29;1606;-80
2023/07/14 01:16:53;;;;;;;11.52;7.40;;;;;;;15.56;80.08;101175.44;688227;28;791;-80
2023/07/14 01:17:15;;;;;;;9.05;7.07;;;;;;;15.59;80.23;101185.13;688168;28;1119;-80
2023/07/14 01:17:37;;;;;;;8.75;6.97;;;;;;;15.62;80.10;101183.44;690899;28;1001;-81
2023/07/14 01:17:59;;;;;;;8.75;7.10;;;;;;;15.61;80.14;101188.69;688133;28;1132;-80
2023/07/14 01:18:20;;;;;;;8.98;7.32;;;;;;;15.62;80.01;101185.19;685507;28;1305;-80
2023/07/14 01:18:43;;;;;;;9.90;7.72;;;;;;;15.56;79.68;101175.44;690805;28;1470;-81
2023/07/14 01:19:19;;;;;;;8.82;7.32;;;;;;;15.54;79.94;101171.91;690784;28;1073;-80
2023/07/14 01:19:51;;;;;;;10.00;7.00;;;;;;;15.49;79.63;101163.97;690340;28;1281;-80
2023/07/14 01:20:12;;;;;;;10.65;7.43;;;;;;;15.58;79.84;101168.47;682649;29;1315;-80
2023/07/14 01:20:35;;;;;;;9.52;7.43;;;;;;;15.60;79.72;101179.91;682643;29;1076;-80
2023/07/14 01:20:56;;;;;;;10.10;7.45;;;;;;;15.54;79.82;101171.06;680069;29;1041;-80
2023/07/14 01:21:21;;;;;;;9.77;7.07;;;;;;;15.53;79.90;101164.00;682830;29;1079;-80
2023/07/14 01:21:47;;;;;;;10.15;6.63;;;;;;;15.51;79.83;101157.84;686732;28;1285;-80
2023/07/14 01:22:16;;;;;;;11.20;7.03;;;;;;;15.56;79.81;101164.06;685473;28;1036;-80
2023/07/14 01:22:48;;;;;;;9.93;7.07;;;;;;;15.62;79.67;101177.28;685156;28;1378;-82
2023/07/14 01:23:16;;;;;;;9.38;6.68;;;;;;;15.61;79.96;101176.41;688166;28;1433;-80
2023/07/14 01:23:53;;;;;;;9.75;6.65;;;;;;;15.62;79.66;101175.53;685336;28;1112;-81
2023/07/14 01:24:20;;;;;;;12.02;7.45;;;;;;;15.55;79.55;101163.16;682858;28;1207;-80
2023/07/14 01:24:58;;;;;;;11.73;7.72;;;;;;;15.58;79.84;101171.09;682896;28;1103;-80
2023/07/14 01:25:22;;;;;;;12.77;7.00;;;;;;;15.67;79.68;101182.63;682687;28;1365;-80
2023/07/14 01:25:59;;;;;;;14.88;6.63;;;;;;;15.62;79.71;101174.66;684981;28;1350;-81
2023/07/14 01:26:41;;;;;;;13.10;7.20;;;;;;;15.57;79.66;101166.72;685333;28;1229;-80
2023/07/14 01:27:06;;;;;;;15.65;7.50;;;;;;;15.61;79.60;101168.50;685303;28;1429;-80
2023/07/14 01:27:27;;;;;;;15.25;7.45;;;;;;;15.59;79.60;101167.63;685121;28;1098;-80
2023/07/14 01:27:48;;;;;;;12.13;7.38;;;;;;;15.58;79.71;101162.31;682896;28;1188;-80
2023/07/14 01:28:11;;;;;;;9.93;7.43;;;;;;;15.57;79.61;101169.34;685299;28;1920;-80
2023/07/14 01:28:33;;;;;;;11.88;7.50;;;;;;;15.58;79.69;101163.22;682653;28;886;-80
2023/07/14 01:28:54;;;;;;;11.15;7.20;;;;;;;15.56;79.78;101161.44;690877;28;1040;-80
2023/07/14 01:29:16;;;;;;;10.30;7.00;;;;;;;15.57;79.74;101166.72;688041;28;1518;-80
2023/07/14 01:29:38;;;;;;;9.32;6.75;;;;;;;15.64;79.86;101178.19;680454;28;1141;-80
2023/07/14 01:29:59;;;;;;;9.90;6.90;;;;;;;15.56;79.50;101159.66;688080;28;1382;-80
2023/07/14 01:30:21;;;;;;;10.05;6.95;;;;;;;15.68;79.63;101181.75;687782;28;2072;-80
2023/07/14 01:30:43;;;;;;;9.40;7.00;;;;;;;15.63;79.76;101177.28;682916;28;1297;-80
2023/07/14 01:31:04;;;;;;;11.97;7.63;;;;;;;15.65;79.40;101179.06;682211;29;1415;-80
2023/07/14 01:31:25;;;;;;;14.88;8.23;;;;;;;15.64;79.53;101183.47;682510;29;1193;-80
2023/07/14 01:31:48;;;;;;;16.35;8.15;;;;;;;15.63;79.53;101184.31;687470;28;1229;-80
2023/07/14 01:32:17;;;;;;;13.73;7.45;;;;;;;15.62;79.31;101186.06;685441;28;1292;-80
2023/07/14 01:32:42;;;;;;;11.70;6.97;;;;;;;15.60;79.30;101179.00;685397;28;1376;-80
2023/07/14 01:33:05;;;;;;;12.05;7.88;;;;;;;15.56;79.51;101172.81;680139;28;1199;-80
2023/07/14 01:33:25;;;;;;;12.63;7.78;;;;;;;15.57;79.42;101174.59;682688;28;997;-80
2023/07/14 01:33:46;;;;;;;12.53;7.60;;;;;;;15.57;79.42;101177.25;682973;29;1031;-80
2023/07/14 01:34:08;;;;;;;11.55;7.40;;;;;;;15.49;79.40;101168.34;680116;29;1026;-80
2023/07/14 01:34:28;;;;;;;11.20;7.32;;;;;;;15.55;79.38;101180.69;677592;29;1099;-80
2023/07/14 01:34:50;;;;;;;10.98;7.15;;;;;;;15.49;79.27;101168.34;683100;28;1322;-80
2023/07/14 01:35:12;;;;;;;12.15;7.32;;;;;;;15.51;79.36;101173.63;688170;28;1095;-80
2023/07/14 01:35:39;;;;;;;14.23;7.47;;;;;;;15.52;79.42;101180.63;682650;28;1299;-80
2023/07/14 01:36:01;;;;;;;14.70;7.43;;;;;;;15.47;79.48;101178.84;688001;28;1180;-80
2023/07/14 01:36:24;;;;;;;13.35;7.32;;;;;;;15.44;79.45;101170.03;690654;28;1076;-80
2023/07/14 01:36:46;;;;;;;13.43;7.45;;;;;;;15.49;79.50;101176.25;688076;28;819;-80
2023/07/14 01:37:08;;;;;;;12.40;7.60;;;;;;;15.48;79.47;101177.09;685205;28;1206;-81
2023/07/14 01:37:28;;;;;;;13.27;7.50;;;;;;;15.44;79.56;101170.03;686729;28;1107;-80
2023/07/14 01:37:49;;;;;;;11.45;7.40;;;;;;;15.39;79.65;101167.34;687857;28;1438;-80
2023/07/14 01:38:10;;;;;;;10.57;7.38;;;;;;;15.41;79.56;101173.50;685316;28;1151;-80
2023/07/14 01:38:31;;;;;;;9.68;7.20;;;;;;;15.42;79.75;101182.28;690459;28;1218;-80
2023/07/14 01:38:53;;;;;;;11.13;7.55;;;;;;;15.45;79.85;101182.31;688497;28;1073;-80
2023/07/14 01:39:14;;;;;;;10.25;7.30;;;;;;;15.40;79.72;101174.34;684761;28;1827;-80
2023/07/14 01:39:35;;;;;;;10.13;7.60;;;;;;;15.43;79.89;101184.03;683362;28;1207;-80
2023/07/14 01:39:56;;;;;;;10.38;7.40;;;;;;;15.43;79.90;101184.91;682650;29;1196;-80
2023/07/14 01:40:18;;;;;;;10.27;7.13;;;;;;;15.38;80.06;101170.84;685208;28;1231;-80
2023/07/14 01:40:40;;;;;;;9.77;6.80;;;;;;;15.42;79.92;101179.66;685510;28;904;-80
2023/07/14 01:41:04;;;;;;;9.13;6.63;;;;;;;15.38;80.06;101170.84;685402;28;1323;-80
2023/07/14 01:41:25;;;;;;;10.30;6.93;;;;;;;15.45;80.19;101177.94;685352;28;994;-80
2023/07/14 01:41:47;;;;;;;12.20;7.10;;;;;;;15.47;80.15;101175.31;682898;29;776;-80
2023/07/14 01:42:08;;;;;;;12.05;7.03;;;;;;;15.47;80.11;101178.84;680280;29;1338;-80
2023/07/14 01:42:29;;;;;;;11.15;7.00;;;;;;;15.48;79.97;101174.44;679894;28;1208;-80
2023/07/14 01:42:56;;;;;;;14.00;7.40;;;;;;;15.48;80.04;101171.81;678179;29;1268;-82
2023/07/14 01:43:17;;;;;;;15.20;7.60;;;;;;;15.46;79.97;101170.94;682687;28;1254;-80
2023/07/14 01:43:40;;;;;;;14.48;7.18;;;;;;;15.51;79.73;101171.88;682101;29;1280;-80
2023/07/14 01:44:03;;;;;;;11.02;6.85;;;;;;;15.54;79.81;101168.41;685441;28;1245;-80
2023/07/14 01:44:25;;;;;;;18.33;7.10;;;;;;;15.59;79.60;101180.75;685310;28;1332;-80
2023/07/14 01:44:48;;;;;;;23.83;7.43;;;;;;;15.52;79.60;101163.13;686247;28;894;-80
2023/07/14 01:45:14;;;;;;;22.55;7.65;;;;;;;15.56;79.47;101172.81;690759;28;979;-80
2023/07/14 01:45:44;;;;;;;12.82;7.30;;;;;;;15.56;79.38;101170.19;691638;28;1224;-80
2023/07/14 01:46:07;;;;;;;12.45;7.40;;;;;;;15.55;79.41;101168.41;688074;28;1278;-80
2023/07/14 01:46:32;;;;;;;11.98;7.20;;;;;;;15.52;79.36;101160.50;682404;28;1044;-80
2023/07/14 01:46:55;;;;;;;11.02;6.85;;;;;;;15.54;79.37;101160.53;688274;28;1114;-80
2023/07/14 01:47:17;;;;;;;9.30;6.97;;;;;;;15.53;79.15;101162.25;690633;28;1317;-80
2023/07/14 01:47:39;;;;;;;9.02;6.95;;;;;;;15.54;79.02;101161.38;690611;28;1273;-80
2023/07/14 01:48:03;;;;;;;8.85;6.97;;;;;;;15.56;79.01;101172.81;690697;28;1914;-80
2023/07/14 01:48:29;;;;;;;8.95;6.60;;;;;;;15.54;78.86;101160.53;685318;28;1270;-80
2023/07/14 01:48:57;;;;;;;10.65;7.05;;;;;;;15.62;78.93;101180.78;691107;28;1588;-80
2023/07/14 01:49:49;;;;;;;12.10;7.85;;;;;;;15.61;78.93;101172.91;690579;28;993;-80
2023/07/14 01:50:20;;;;;;;11.40;7.10;;;;;;;15.59;78.81;101174.59;685106;28;1406;-80
2023/07/14 01:50:49;;;;;;;8.40;6.65;;;;;;;15.53;78.83;101164.00;688156;28;1166;-80
2023/07/14 01:51:12;;;;;;;11.00;6.75;;;;;;;15.56;78.75;101169.31;688038;28;1119;-80
2023/07/14 01:51:38;;;;;;;11.40;6.90;;;;;;;15.52;78.79;101167.50;685374;28;1073;-80
2023/07/14 01:52:02;;;;;;;12.13;7.20;;;;;;;15.57;78.93;101177.25;680137;29;998;-80
2023/07/14 01:52:29;;;;;;;10.95;6.90;;;;;;;15.52;78.72;101164.84;685393;28;1931;-80
2023/07/14 01:52:54;;;;;;;11.82;6.85;;;;;;;15.51;78.78;101171.88;685445;28;1150;-80
2023/07/14 01:53:28;;;;;;;10.13;6.82;;;;;;;15.52;78.68;101175.38;693383;28;981;-80
2023/07/14 01:54:09;;;;;;;11.13;6.53;;;;;;;15.46;78.94;101169.19;685476;28;1158;-80
2023/07/14 01:54:48;;;;;;;12.63;6.80;;;;;;;15.48;78.85;101167.47;685060;28;1085;-80
2023/07/14 01:55:14;;;;;;;12.40;7.07;;;;;;;15.51;78.92;101177.16;687862;28;1378;-80